Ignasino, Russia
Current Conditions -  °F | °C
As of 6:00 PM on Wednesday 22 Oct 2014 (Local Time) from UHBB Reporting Station
Clear Clear  
Wind Chill: 34°   Ceiling: Unl
Heat Index: 39°   Visibility: 6mi
Dew Point:   Wind: 7mph
Humidity: 21%   Direction: 210°SSW
Pressure: 29.83"   Gusts: NA
Location:  53.47°N, 122.4°E
Report Text: UHBB 220900Z 21003MPS 170V240 CAVOK 04/M17 Q1010 NOSIG RMKQFE742/0989 18090060
Loading
Personal Weather Stations






























Interactive Weather Map
Tropical Storm Tracking
New forecast layout! Learn more

10-Day Weather Forecast

Advertisements
Track Severe Weather on mobile